sensor_id;sensor_type;location;lat;lon;timestamp;temperature;humidity
2941;DHT22;1480;51.456;6.670;2023-02-13T00:00:18;10.40;85.70
2941;DHT22;1480;51.456;6.670;2023-02-13T00:02:46;10.40;85.60
2941;DHT22;1480;51.456;6.670;2023-02-13T00:05:13;10.30;85.60
2941;DHT22;1480;51.456;6.670;2023-02-13T00:07:40;10.40;85.50
2941;DHT22;1480;51.456;6.670;2023-02-13T00:10:07;10.30;85.70
2941;DHT22;1480;51.456;6.670;2023-02-13T00:12:34;10.30;85.50
2941;DHT22;1480;51.456;6.670;2023-02-13T00:15:02;10.40;85.50
2941;DHT22;1480;51.456;6.670;2023-02-13T00:17:31;10.30;85.60
2941;DHT22;1480;51.456;6.670;2023-02-13T00:19:58;10.40;85.60
2941;DHT22;1480;51.456;6.670;2023-02-13T00:22:25;10.30;85.50
2941;DHT22;1480;51.456;6.670;2023-02-13T00:24:52;10.40;85.60
2941;DHT22;1480;51.456;6.670;2023-02-13T00:27:19;10.30;85.50
2941;DHT22;1480;51.456;6.670;2023-02-13T00:29:46;10.40;85.60
2941;DHT22;1480;51.456;6.670;2023-02-13T00:32:13;10.30;85.80
2941;DHT22;1480;51.456;6.670;2023-02-13T00:34:42;10.40;86.20
2941;DHT22;1480;51.456;6.670;2023-02-13T00:37:09;10.30;86.10
2941;DHT22;1480;51.456;6.670;2023-02-13T00:39:36;10.30;85.70
2941;DHT22;1480;51.456;6.670;2023-02-13T00:42:03;10.30;85.80
2941;DHT22;1480;51.456;6.670;2023-02-13T00:44:30;10.30;86.00
2941;DHT22;1480;51.456;6.670;2023-02-13T00:46:57;10.30;85.40
2941;DHT22;1480;51.456;6.670;2023-02-13T00:49:24;10.30;86.00
2941;DHT22;1480;51.456;6.670;2023-02-13T00:51:52;10.20;85.50
2941;DHT22;1480;51.456;6.670;2023-02-13T00:54:21;10.30;85.60
2941;DHT22;1480;51.456;6.670;2023-02-13T00:56:48;10.30;85.60
2941;DHT22;1480;51.456;6.670;2023-02-13T00:59:15;10.40;85.80
2941;DHT22;1480;51.456;6.670;2023-02-13T01:01:42;10.20;85.80
2941;DHT22;1480;51.456;6.670;2023-02-13T01:04:09;10.30;85.30
2941;DHT22;1480;51.456;6.670;2023-02-13T01:06:36;10.20;85.70
2941;DHT22;1480;51.456;6.670;2023-02-13T01:09:05;10.20;85.50
2941;DHT22;1480;51.456;6.670;2023-02-13T01:11:31;10.30;85.60
2941;DHT22;1480;51.456;6.670;2023-02-13T01:13:59;10.10;85.60
2941;DHT22;1480;51.456;6.670;2023-02-13T01:16:26;10.20;85.90
2941;DHT22;1480;51.456;6.670;2023-02-13T01:18:54;10.10;85.50
2941;DHT22;1480;51.456;6.670;2023-02-13T01:21:22;10.10;85.00
2941;DHT22;1480;51.456;6.670;2023-02-13T01:23:52;10.20;85.40
2941;DHT22;1480;51.456;6.670;2023-02-13T01:26:21;10.10;85.10
2941;DHT22;1480;51.456;6.670;2023-02-13T01:28:51;10.10;85.10
2941;DHT22;1480;51.456;6.670;2023-02-13T01:31:19;10.00;85.40
2941;DHT22;1480;51.456;6.670;2023-02-13T01:33:49;10.10;85.40
2941;DHT22;1480;51.456;6.670;2023-02-13T01:36:20;10.10;85.20
2941;DHT22;1480;51.456;6.670;2023-02-13T01:38:47;10.10;85.20
2941;DHT22;1480;51.456;6.670;2023-02-13T01:41:13;10.10;85.40
2941;DHT22;1480;51.456;6.670;2023-02-13T01:43:48;10.10;85.20
2941;DHT22;1480;51.456;6.670;2023-02-13T01:46:21;10.00;85.30
2941;DHT22;1480;51.456;6.670;2023-02-13T01:48:50;10.00;85.30
2941;DHT22;1480;51.456;6.670;2023-02-13T01:51:21;10.00;85.50
2941;DHT22;1480;51.456;6.670;2023-02-13T01:53:52;10.00;85.60
2941;DHT22;1480;51.456;6.670;2023-02-13T01:56:25;10.00;85.40
2941;DHT22;1480;51.456;6.670;2023-02-13T01:58:58;10.10;85.60
2941;DHT22;1480;51.456;6.670;2023-02-13T02:01:26;10.00;85.70
2941;DHT22;1480;51.456;6.670;2023-02-13T02:03:56;10.00;85.30
2941;DHT22;1480;51.456;6.670;2023-02-13T02:06:32;10.10;85.50
2941;DHT22;1480;51.456;6.670;2023-02-13T02:09:05;10.10;85.60
2941;DHT22;1480;51.456;6.670;2023-02-13T02:11:40;10.10;85.70
2941;DHT22;1480;51.456;6.670;2023-02-13T02:14:12;10.00;85.60
2941;DHT22;1480;51.456;6.670;2023-02-13T02:16:40;10.10;85.70
2941;DHT22;1480;51.456;6.670;2023-02-13T02:19:55;10.00;85.60
2941;DHT22;1480;51.456;6.670;2023-02-13T02:26:25;10.00;85.70
2941;DHT22;1480;51.456;6.670;2023-02-13T02:35:14;10.00;85.70
2941;DHT22;1480;51.456;6.670;2023-02-13T02:38:07;10.00;85.90
2941;DHT22;1480;51.456;6.670;2023-02-13T02:41:03;9.90;85.80
2941;DHT22;1480;51.456;6.670;2023-02-13T02:43:54;10.10;85.70
2941;DHT22;1480;51.456;6.670;2023-02-13T02:46:56;10.00;85.70
2941;DHT22;1480;51.456;6.670;2023-02-13T02:49:53;10.00;85.60
2941;DHT22;1480;51.456;6.670;2023-02-13T02:52:36;10.00;85.80
2941;DHT22;1480;51.456;6.670;2023-02-13T02:55:10;10.00;85.90
2941;DHT22;1480;51.456;6.670;2023-02-13T02:58:04;10.00;85.70
2941;DHT22;1480;51.456;6.670;2023-02-13T03:01:08;10.00;85.80
2941;DHT22;1480;51.456;6.670;2023-02-13T03:04:05;9.90;85.70
2941;DHT22;1480;51.456;6.670;2023-02-13T03:07:18;10.00;85.70
2941;DHT22;1480;51.456;6.670;2023-02-13T03:09:57;10.00;85.40
2941;DHT22;1480;51.456;6.670;2023-02-13T03:12:56;9.90;85.70
2941;DHT22;1480;51.456;6.670;2023-02-13T03:15:45;9.90;86.00
2941;DHT22;1480;51.456;6.670;2023-02-13T03:18:30;9.90;85.90
2941;DHT22;1480;51.456;6.670;2023-02-13T03:21:34;9.90;85.90
2941;DHT22;1480;51.456;6.670;2023-02-13T03:24:37;9.90;86.00
2941;DHT22;1480;51.456;6.670;2023-02-13T03:27:17;9.70;86.50
2941;DHT22;1480;51.456;6.670;2023-02-13T03:30:20;9.80;86.10
2941;DHT22;1480;51.456;6.670;2023-02-13T03:33:05;9.70;86.50
2941;DHT22;1480;51.456;6.670;2023-02-13T03:35:57;9.80;86.30
2941;DHT22;1480;51.456;6.670;2023-02-13T03:38:56;9.80;86.20
2941;DHT22;1480;51.456;6.670;2023-02-13T03:41:43;9.70;86.50
2941;DHT22;1480;51.456;6.670;2023-02-13T03:44:18;9.70;86.40
2941;DHT22;1480;51.456;6.670;2023-02-13T03:46:52;9.70;86.50
2941;DHT22;1480;51.456;6.670;2023-02-13T03:49:23;9.80;86.60
2941;DHT22;1480;51.456;6.670;2023-02-13T03:52:14;9.80;86.00
2941;DHT22;1480;51.456;6.670;2023-02-13T03:54:47;9.80;86.40
2941;DHT22;1480;51.456;6.670;2023-02-13T03:57:36;9.70;86.50
2941;DHT22;1480;51.456;6.670;2023-02-13T04:00:23;9.80;86.20
2941;DHT22;1480;51.456;6.670;2023-02-13T04:03:03;9.80;86.60
2941;DHT22;1480;51.456;6.670;2023-02-13T04:05:38;9.80;86.50
2941;DHT22;1480;51.456;6.670;2023-02-13T04:08:07;9.70;86.30
2941;DHT22;1480;51.456;6.670;2023-02-13T04:10:36;9.80;86.30
2941;DHT22;1480;51.456;6.670;2023-02-13T04:13:11;9.60;86.30
2941;DHT22;1480;51.456;6.670;2023-02-13T04:15:44;9.60;86.50
2941;DHT22;1480;51.456;6.670;2023-02-13T04:18:18;9.60;87.00
2941;DHT22;1480;51.456;6.670;2023-02-13T04:23:50;9.60;86.90
2941;DHT22;1480;51.456;6.670;2023-02-13T04:26:20;9.70;87.10
2941;DHT22;1480;51.456;6.670;2023-02-13T04:28:50;9.60;87.20
2941;DHT22;1480;51.456;6.670;2023-02-13T04:31:17;9.60;87.20
2941;DHT22;1480;51.456;6.670;2023-02-13T04:33:44;9.60;87.50
2941;DHT22;1480;51.456;6.670;2023-02-13T04:36:12;9.50;87.30
2941;DHT22;1480;51.456;6.670;2023-02-13T04:38:42;9.60;87.20
2941;DHT22;1480;51.456;6.670;2023-02-13T04:41:18;9.60;87.10
2941;DHT22;1480;51.456;6.670;2023-02-13T04:43:52;9.40;87.30
2941;DHT22;1480;51.456;6.670;2023-02-13T04:46:24;9.60;87.30
2941;DHT22;1480;51.456;6.670;2023-02-13T04:48:53;9.70;87.30
2941;DHT22;1480;51.456;6.670;2023-02-13T04:51:21;9.50;87.30
2941;DHT22;1480;51.456;6.670;2023-02-13T04:53:48;9.70;87.50
2941;DHT22;1480;51.456;6.670;2023-02-13T04:56:15;9.60;87.40
2941;DHT22;1480;51.456;6.670;2023-02-13T04:58:43;9.50;87.40
2941;DHT22;1480;51.456;6.670;2023-02-13T05:01:12;9.60;87.40
2941;DHT22;1480;51.456;6.670;2023-02-13T05:03:45;9.50;87.50
2941;DHT22;1480;51.456;6.670;2023-02-13T05:06:14;9.60;87.50
2941;DHT22;1480;51.456;6.670;2023-02-13T05:08:50;9.50;87.60
2941;DHT22;1480;51.456;6.670;2023-02-13T05:11:24;9.50;87.60
2941;DHT22;1480;51.456;6.670;2023-02-13T05:14:12;9.30;87.70
2941;DHT22;1480;51.456;6.670;2023-02-13T05:16:41;9.40;87.90
2941;DHT22;1480;51.456;6.670;2023-02-13T05:19:13;9.40;88.30
2941;DHT22;1480;51.456;6.670;2023-02-13T05:21:40;9.40;88.20
2941;DHT22;1480;51.456;6.670;2023-02-13T05:24:31;9.30;88.40
2941;DHT22;1480;51.456;6.670;2023-02-13T05:27:14;9.30;88.90
2941;DHT22;1480;51.456;6.670;2023-02-13T05:29:45;9.30;88.70
2941;DHT22;1480;51.456;6.670;2023-02-13T05:32:18;9.20;88.40
2941;DHT22;1480;51.456;6.670;2023-02-13T05:35:03;9.20;88.70
2941;DHT22;1480;51.456;6.670;2023-02-13T05:37:31;9.30;88.70
2941;DHT22;1480;51.456;6.670;2023-02-13T05:40:08;9.10;89.20
2941;DHT22;1480;51.456;6.670;2023-02-13T05:42:42;9.10;89.00
2941;DHT22;1480;51.456;6.670;2023-02-13T05:45:09;9.10;89.80
2941;DHT22;1480;51.456;6.670;2023-02-13T05:47:42;9.00;89.10
2941;DHT22;1480;51.456;6.670;2023-02-13T05:50:09;8.90;89.50
2941;DHT22;1480;51.456;6.670;2023-02-13T05:52:44;8.70;89.50
2941;DHT22;1480;51.456;6.670;2023-02-13T05:55:30;8.60;90.60
2941;DHT22;1480;51.456;6.670;2023-02-13T05:57:59;8.70;89.80
2941;DHT22;1480;51.456;6.670;2023-02-13T06:00:26;8.70;90.20
2941;DHT22;1480;51.456;6.670;2023-02-13T06:02:54;8.50;90.40
2941;DHT22;1480;51.456;6.670;2023-02-13T06:05:21;8.60;90.80
2941;DHT22;1480;51.456;6.670;2023-02-13T06:07:48;8.50;90.60
2941;DHT22;1480;51.456;6.670;2023-02-13T06:10:15;8.40;91.00
2941;DHT22;1480;51.456;6.670;2023-02-13T06:12:42;8.40;91.00
2941;DHT22;1480;51.456;6.670;2023-02-13T06:15:09;8.30;91.20
2941;DHT22;1480;51.456;6.670;2023-02-13T06:17:36;8.30;91.30
2941;DHT22;1480;51.456;6.670;2023-02-13T06:20:06;8.10;91.70
2941;DHT22;1480;51.456;6.670;2023-02-13T06:22:33;8.10;91.90
2941;DHT22;1480;51.456;6.670;2023-02-13T06:25:00;8.20;92.10
2941;DHT22;1480;51.456;6.670;2023-02-13T06:27:27;7.90;92.20
2941;DHT22;1480;51.456;6.670;2023-02-13T06:29:54;8.10;92.00
2941;DHT22;1480;51.456;6.670;2023-02-13T06:32:21;8.20;92.70
2941;DHT22;1480;51.456;6.670;2023-02-13T06:34:48;8.10;92.30
2941;DHT22;1480;51.456;6.670;2023-02-13T06:37:16;8.20;92.30
2941;DHT22;1480;51.456;6.670;2023-02-13T06:39:43;8.10;92.20
2941;DHT22;1480;51.456;6.670;2023-02-13T06:42:10;7.90;92.50
2941;DHT22;1480;51.456;6.670;2023-02-13T06:44:37;8.00;92.30
2941;DHT22;1480;51.456;6.670;2023-02-13T06:47:04;8.00;92.50
2941;DHT22;1480;51.456;6.670;2023-02-13T06:49:31;7.90;92.30
2941;DHT22;1480;51.456;6.670;2023-02-13T06:51:57;8.00;92.30
2941;DHT22;1480;51.456;6.670;2023-02-13T06:54:26;8.00;92.60
2941;DHT22;1480;51.456;6.670;2023-02-13T06:56:54;8.00;92.60
2941;DHT22;1480;51.456;6.670;2023-02-13T06:59:21;7.80;92.70
2941;DHT22;1480;51.456;6.670;2023-02-13T07:01:48;7.90;92.80
2941;DHT22;1480;51.456;6.670;2023-02-13T07:04:14;7.70;92.60
2941;DHT22;1480;51.456;6.670;2023-02-13T07:06:41;7.90;93.10
2941;DHT22;1480;51.456;6.670;2023-02-13T07:09:08;7.90;93.20
2941;DHT22;1480;51.456;6.670;2023-02-13T07:11:39;7.80;93.20
2941;DHT22;1480;51.456;6.670;2023-02-13T07:14:06;7.90;93.10
2941;DHT22;1480;51.456;6.670;2023-02-13T07:16:33;8.00;92.90
2941;DHT22;1480;51.456;6.670;2023-02-13T07:19:00;8.10;92.60
2941;DHT22;1480;51.456;6.670;2023-02-13T07:21:27;8.00;92.80
2941;DHT22;1480;51.456;6.670;2023-02-13T07:23:54;7.90;92.30
2941;DHT22;1480;51.456;6.670;2023-02-13T07:26:21;8.20;92.70
2941;DHT22;1480;51.456;6.670;2023-02-13T07:28:49;8.00;92.50
2941;DHT22;1480;51.456;6.670;2023-02-13T07:31:16;7.90;92.80
2941;DHT22;1480;51.456;6.670;2023-02-13T07:33:43;8.20;92.90
2941;DHT22;1480;51.456;6.670;2023-02-13T07:36:10;8.30;92.90
2941;DHT22;1480;51.456;6.670;2023-02-13T07:38:37;8.30;92.70
2941;DHT22;1480;51.456;6.670;2023-02-13T07:41:04;8.30;92.50
2941;DHT22;1480;51.456;6.670;2023-02-13T07:43:31;8.40;92.30
2941;DHT22;1480;51.456;6.670;2023-02-13T07:46:00;8.40;92.10
2941;DHT22;1480;51.456;6.670;2023-02-13T07:48:28;8.60;91.60
2941;DHT22;1480;51.456;6.670;2023-02-13T07:50:59;8.70;91.40
2941;DHT22;1480;51.456;6.670;2023-02-13T07:53:27;8.70;90.90
2941;DHT22;1480;51.456;6.670;2023-02-13T07:55:54;8.60;90.90
2941;DHT22;1480;51.456;6.670;2023-02-13T07:58:21;8.70;90.50
2941;DHT22;1480;51.456;6.670;2023-02-13T08:00:52;8.90;90.70
2941;DHT22;1480;51.456;6.670;2023-02-13T08:03:22;8.90;90.50
2941;DHT22;1480;51.456;6.670;2023-02-13T08:05:49;8.90;89.90
2941;DHT22;1480;51.456;6.670;2023-02-13T08:08:18;9.10;89.50
2941;DHT22;1480;51.456;6.670;2023-02-13T08:10:44;9.10;88.70
2941;DHT22;1480;51.456;6.670;2023-02-13T08:13:30;9.10;88.90
2941;DHT22;1480;51.456;6.670;2023-02-13T08:15:57;9.30;88.50
2941;DHT22;1480;51.456;6.670;2023-02-13T08:18:26;9.40;88.60
2941;DHT22;1480;51.456;6.670;2023-02-13T08:20:56;9.40;88.00
2941;DHT22;1480;51.456;6.670;2023-02-13T08:23:22;9.30;87.90
2941;DHT22;1480;51.456;6.670;2023-02-13T08:25:49;9.50;87.90
2941;DHT22;1480;51.456;6.670;2023-02-13T08:28:16;9.40;87.50
2941;DHT22;1480;51.456;6.670;2023-02-13T08:30:43;9.50;87.40
2941;DHT22;1480;51.456;6.670;2023-02-13T08:33:10;9.50;86.70
2941;DHT22;1480;51.456;6.670;2023-02-13T08:35:39;9.50;86.80
2941;DHT22;1480;51.456;6.670;2023-02-13T08:38:06;9.60;86.80
2941;DHT22;1480;51.456;6.670;2023-02-13T08:40:33;9.70;86.80
2941;DHT22;1480;51.456;6.670;2023-02-13T08:43:01;9.80;86.50
2941;DHT22;1480;51.456;6.670;2023-02-13T08:45:29;9.70;86.00
2941;DHT22;1480;51.456;6.670;2023-02-13T08:47:56;10.00;85.70
2941;DHT22;1480;51.456;6.670;2023-02-13T08:50:23;10.00;85.40
2941;DHT22;1480;51.456;6.670;2023-02-13T08:52:51;10.20;84.80
2941;DHT22;1480;51.456;6.670;2023-02-13T08:55:18;10.30;84.10
2941;DHT22;1480;51.456;6.670;2023-02-13T08:57:45;10.30;83.80
2941;DHT22;1480;51.456;6.670;2023-02-13T09:00:13;10.30;83.90
2941;DHT22;1480;51.456;6.670;2023-02-13T09:02:40;10.20;83.60
2941;DHT22;1480;51.456;6.670;2023-02-13T09:05:07;10.30;83.40
2941;DHT22;1480;51.456;6.670;2023-02-13T09:07:34;10.50;83.40
2941;DHT22;1480;51.456;6.670;2023-02-13T09:10:03;10.60;82.80
2941;DHT22;1480;51.456;6.670;2023-02-13T09:12:30;10.70;82.40
2941;DHT22;1480;51.456;6.670;2023-02-13T09:14:57;10.70;81.80
2941;DHT22;1480;51.456;6.670;2023-02-13T09:17:25;10.70;81.90
2941;DHT22;1480;51.456;6.670;2023-02-13T09:19:52;10.90;81.80
2941;DHT22;1480;51.456;6.670;2023-02-13T09:22:19;10.90;81.10
2941;DHT22;1480;51.456;6.670;2023-02-13T09:24:45;11.00;80.90
2941;DHT22;1480;51.456;6.670;2023-02-13T09:27:14;11.10;80.60
2941;DHT22;1480;51.456;6.670;2023-02-13T09:29:41;11.10;80.50
2941;DHT22;1480;51.456;6.670;2023-02-13T09:32:08;11.20;80.30
2941;DHT22;1480;51.456;6.670;2023-02-13T09:34:35;11.30;79.80
2941;DHT22;1480;51.456;6.670;2023-02-13T09:37:02;11.40;79.80
2941;DHT22;1480;51.456;6.670;2023-02-13T09:39:29;11.50;79.40
2941;DHT22;1480;51.456;6.670;2023-02-13T09:41:56;11.50;78.70
2941;DHT22;1480;51.456;6.670;2023-02-13T09:44:29;11.70;79.50
2941;DHT22;1480;51.456;6.670;2023-02-13T09:47:03;11.80;78.90
2941;DHT22;1480;51.456;6.670;2023-02-13T09:49:34;11.90;78.10
2941;DHT22;1480;51.456;6.670;2023-02-13T09:52:03;12.00;78.10
2941;DHT22;1480;51.456;6.670;2023-02-13T09:54:30;12.00;77.90
2941;DHT22;1480;51.456;6.670;2023-02-13T09:57:02;12.00;77.60
2941;DHT22;1480;51.456;6.670;2023-02-13T09:59:41;12.20;77.20
2941;DHT22;1480;51.456;6.670;2023-02-13T10:05:13;12.20;77.30
2941;DHT22;1480;51.456;6.670;2023-02-13T10:07:47;12.40;76.00
2941;DHT22;1480;51.456;6.670;2023-02-13T10:10:22;12.50;76.00
2941;DHT22;1480;51.456;6.670;2023-02-13T10:13:07;12.50;75.40
2941;DHT22;1480;51.456;6.670;2023-02-13T10:15:47;12.30;75.10
2941;DHT22;1480;51.456;6.670;2023-02-13T10:18:21;12.50;76.30
2941;DHT22;1480;51.456;6.670;2023-02-13T10:20:51;12.60;74.30
2941;DHT22;1480;51.456;6.670;2023-02-13T10:23:23;12.80;74.10
2941;DHT22;1480;51.456;6.670;2023-02-13T10:25:54;12.90;73.00
2941;DHT22;1480;51.456;6.670;2023-02-13T10:28:35;12.80;73.80
2941;DHT22;1480;51.456;6.670;2023-02-13T10:31:08;12.80;72.80
2941;DHT22;1480;51.456;6.670;2023-02-13T10:33:42;12.70;72.30
2941;DHT22;1480;51.456;6.670;2023-02-13T10:36:17;12.90;73.80
2941;DHT22;1480;51.456;6.670;2023-02-13T10:38:53;12.90;72.80
2941;DHT22;1480;51.456;6.670;2023-02-13T10:41:34;13.20;72.80
2941;DHT22;1480;51.456;6.670;2023-02-13T10:44:22;13.10;71.30
2941;DHT22;1480;51.456;6.670;2023-02-13T10:47:03;13.10;71.40
2941;DHT22;1480;51.456;6.670;2023-02-13T10:49:55;13.20;72.10
2941;DHT22;1480;51.456;6.670;2023-02-13T10:52:34;13.40;72.10
2941;DHT22;1480;51.456;6.670;2023-02-13T10:55:22;13.40;71.20
2941;DHT22;1480;51.456;6.670;2023-02-13T10:58:01;13.50;70.10
2941;DHT22;1480;51.456;6.670;2023-02-13T11:00:36;13.50;70.50
2941;DHT22;1480;51.456;6.670;2023-02-13T11:03:16;13.60;70.10
2941;DHT22;1480;51.456;6.670;2023-02-13T11:05:44;13.60;69.70
2941;DHT22;1480;51.456;6.670;2023-02-13T11:08:17;13.60;69.80
2941;DHT22;1480;51.456;6.670;2023-02-13T11:10:45;13.60;70.40
2941;DHT22;1480;51.456;6.670;2023-02-13T11:13:17;13.60;69.90
2941;DHT22;1480;51.456;6.670;2023-02-13T11:15:57;13.80;68.90
2941;DHT22;1480;51.456;6.670;2023-02-13T11:18:27;13.90;69.50
2941;DHT22;1480;51.456;6.670;2023-02-13T11:21:00;14.00;69.30
2941;DHT22;1480;51.456;6.670;2023-02-13T11:23:37;14.10;66.00
2941;DHT22;1480;51.456;6.670;2023-02-13T11:26:10;14.10;67.50
2941;DHT22;1480;51.456;6.670;2023-02-13T11:28:47;14.10;66.40
2941;DHT22;1480;51.456;6.670;2023-02-13T11:31:23;14.10;66.20
2941;DHT22;1480;51.456;6.670;2023-02-13T11:33:52;14.20;66.40
2941;DHT22;1480;51.456;6.670;2023-02-13T11:36:25;14.20;65.80
2941;DHT22;1480;51.456;6.670;2023-02-13T11:39:00;14.20;66.00
2941;DHT22;1480;51.456;6.670;2023-02-13T11:41:28;14.20;65.30
2941;DHT22;1480;51.456;6.670;2023-02-13T11:43:58;14.20;64.00
2941;DHT22;1480;51.456;6.670;2023-02-13T11:46:28;14.30;65.30
2941;DHT22;1480;51.456;6.670;2023-02-13T11:48:59;14.30;64.70
2941;DHT22;1480;51.456;6.670;2023-02-13T11:51:41;14.40;65.50
2941;DHT22;1480;51.456;6.670;2023-02-13T11:54:31;14.30;65.70
2941;DHT22;1480;51.456;6.670;2023-02-13T11:57:00;14.40;65.30
2941;DHT22;1480;51.456;6.670;2023-02-13T11:59:32;14.40;64.40
2941;DHT22;1480;51.456;6.670;2023-02-13T12:02:13;14.40;64.00
2941;DHT22;1480;51.456;6.670;2023-02-13T12:04:42;14.60;65.80
2941;DHT22;1480;51.456;6.670;2023-02-13T12:07:15;14.60;63.90
2941;DHT22;1480;51.456;6.670;2023-02-13T12:09:44;14.60;64.70
2941;DHT22;1480;51.456;6.670;2023-02-13T12:12:17;14.60;63.10
2941;DHT22;1480;51.456;6.670;2023-02-13T12:14:45;14.50;65.00
2941;DHT22;1480;51.456;6.670;2023-02-13T12:17:16;14.60;63.00
2941;DHT22;1480;51.456;6.670;2023-02-13T12:19:46;14.60;63.20
2941;DHT22;1480;51.456;6.670;2023-02-13T12:22:28;14.60;64.10
2941;DHT22;1480;51.456;6.670;2023-02-13T12:25:15;14.70;62.50
2941;DHT22;1480;51.456;6.670;2023-02-13T12:27:51;14.70;62.50
2941;DHT22;1480;51.456;6.670;2023-02-13T12:30:51;14.80;61.90
2941;DHT22;1480;51.456;6.670;2023-02-13T12:33:34;14.70;61.90
2941;DHT22;1480;51.456;6.670;2023-02-13T12:36:09;14.70;61.60
2941;DHT22;1480;51.456;6.670;2023-02-13T12:38:47;14.80;62.20
2941;DHT22;1480;51.456;6.670;2023-02-13T12:41:21;14.90;62.60
2941;DHT22;1480;51.456;6.670;2023-02-13T12:44:15;15.00;61.80
2941;DHT22;1480;51.456;6.670;2023-02-13T12:46:57;15.10;60.80
2941;DHT22;1480;51.456;6.670;2023-02-13T12:49:51;15.20;61.00
2941;DHT22;1480;51.456;6.670;2023-02-13T12:52:39;15.20;60.50
2941;DHT22;1480;51.456;6.670;2023-02-13T12:55:44;15.10;60.20
2941;DHT22;1480;51.456;6.670;2023-02-13T12:58:38;15.20;59.90
2941;DHT22;1480;51.456;6.670;2023-02-13T13:01:16;15.30;60.10
2941;DHT22;1480;51.456;6.670;2023-02-13T13:03:52;15.30;61.80
2941;DHT22;1480;51.456;6.670;2023-02-13T13:06:39;15.20;60.00
2941;DHT22;1480;51.456;6.670;2023-02-13T13:09:23;15.30;61.00
2941;DHT22;1480;51.456;6.670;2023-02-13T13:14:56;15.40;60.70
2941;DHT22;1480;51.456;6.670;2023-02-13T13:17:49;15.50;59.20
2941;DHT22;1480;51.456;6.670;2023-02-13T13:20:34;15.50;58.20
2941;DHT22;1480;51.456;6.670;2023-02-13T13:23:07;15.50;59.10
2941;DHT22;1480;51.456;6.670;2023-02-13T13:25:44;15.50;58.90
2941;DHT22;1480;51.456;6.670;2023-02-13T13:28:16;15.50;57.80
2941;DHT22;1480;51.456;6.670;2023-02-13T13:30:45;15.50;57.50
2941;DHT22;1480;51.456;6.670;2023-02-13T13:33:15;15.50;57.60
2941;DHT22;1480;51.456;6.670;2023-02-13T13:35:49;15.50;58.40
2941;DHT22;1480;51.456;6.670;2023-02-13T13:38:27;15.50;58.10
2941;DHT22;1480;51.456;6.670;2023-02-13T13:41:05;15.60;57.50
2941;DHT22;1480;51.456;6.670;2023-02-13T13:43:41;15.50;56.80
2941;DHT22;1480;51.456;6.670;2023-02-13T13:46:16;15.50;57.00
2941;DHT22;1480;51.456;6.670;2023-02-13T13:49:11;15.60;57.40
2941;DHT22;1480;51.456;6.670;2023-02-13T13:51:39;15.50;57.70
2941;DHT22;1480;51.456;6.670;2023-02-13T13:54:19;15.60;57.90
2941;DHT22;1480;51.456;6.670;2023-02-13T13:57:11;15.60;57.60
2941;DHT22;1480;51.456;6.670;2023-02-13T14:00:00;15.70;55.90
2941;DHT22;1480;51.456;6.670;2023-02-13T14:02:47;15.60;56.00
2941;DHT22;1480;51.456;6.670;2023-02-13T14:05:24;15.70;56.50
2941;DHT22;1480;51.456;6.670;2023-02-13T14:07:53;15.60;55.90
2941;DHT22;1480;51.456;6.670;2023-02-13T14:13:37;15.70;56.10
2941;DHT22;1480;51.456;6.670;2023-02-13T14:16:07;15.50;55.60
2941;DHT22;1480;51.456;6.670;2023-02-13T14:18:35;15.50;55.70
2941;DHT22;1480;51.456;6.670;2023-02-13T14:21:05;15.50;56.90
2941;DHT22;1480;51.456;6.670;2023-02-13T14:23:43;15.60;57.60
2941;DHT22;1480;51.456;6.670;2023-02-13T14:26:39;15.60;57.80
2941;DHT22;1480;51.456;6.670;2023-02-13T14:29:28;15.60;57.80
2941;DHT22;1480;51.456;6.670;2023-02-13T14:32:02;15.60;56.50
2941;DHT22;1480;51.456;6.670;2023-02-13T14:34:33;15.50;55.20
2941;DHT22;1480;51.456;6.670;2023-02-13T14:37:13;15.60;55.80
2941;DHT22;1480;51.456;6.670;2023-02-13T14:40:10;15.60;55.90
2941;DHT22;1480;51.456;6.670;2023-02-13T14:42:41;15.60;56.20
2941;DHT22;1480;51.456;6.670;2023-02-13T14:45:14;15.60;55.90
2941;DHT22;1480;51.456;6.670;2023-02-13T14:47:44;15.50;55.50
2941;DHT22;1480;51.456;6.670;2023-02-13T14:50:20;15.40;56.60
2941;DHT22;1480;51.456;6.670;2023-02-13T14:52:47;15.50;56.90
2941;DHT22;1480;51.456;6.670;2023-02-13T14:55:22;15.50;57.10
2941;DHT22;1480;51.456;6.670;2023-02-13T14:58:00;15.50;56.30
2941;DHT22;1480;51.456;6.670;2023-02-13T15:00:38;15.40;55.80
2941;DHT22;1480;51.456;6.670;2023-02-13T15:03:18;15.40;55.80
2941;DHT22;1480;51.456;6.670;2023-02-13T15:05:50;15.40;57.20
2941;DHT22;1480;51.456;6.670;2023-02-13T15:08:20;15.30;56.80
2941;DHT22;1480;51.456;6.670;2023-02-13T15:10:49;15.50;55.50
2941;DHT22;1480;51.456;6.670;2023-02-13T15:13:20;15.30;56.90
2941;DHT22;1480;51.456;6.670;2023-02-13T15:15:53;15.30;57.10
2941;DHT22;1480;51.456;6.670;2023-02-13T15:18:24;15.20;57.70
2941;DHT22;1480;51.456;6.670;2023-02-13T15:20:53;15.20;57.20
2941;DHT22;1480;51.456;6.670;2023-02-13T15:23:23;15.20;57.00
2941;DHT22;1480;51.456;6.670;2023-02-13T15:25:56;15.10;57.40
2941;DHT22;1480;51.456;6.670;2023-02-13T15:28:24;15.00;56.70
2941;DHT22;1480;51.456;6.670;2023-02-13T15:30:57;15.10;56.80
2941;DHT22;1480;51.456;6.670;2023-02-13T15:33:27;15.10;57.10
2941;DHT22;1480;51.456;6.670;2023-02-13T15:35:57;15.00;57.90
2941;DHT22;1480;51.456;6.670;2023-02-13T15:38:26;15.00;57.60
2941;DHT22;1480;51.456;6.670;2023-02-13T15:40:55;14.90;58.90
2941;DHT22;1480;51.456;6.670;2023-02-13T15:43:31;14.80;59.10
2941;DHT22;1480;51.456;6.670;2023-02-13T15:46:02;14.80;60.80
2941;DHT22;1480;51.456;6.670;2023-02-13T15:48:32;14.70;60.40
2941;DHT22;1480;51.456;6.670;2023-02-13T15:51:00;14.60;60.80
2941;DHT22;1480;51.456;6.670;2023-02-13T15:53:28;14.60;59.80
2941;DHT22;1480;51.456;6.670;2023-02-13T15:55:58;14.50;60.30
2941;DHT22;1480;51.456;6.670;2023-02-13T15:58:28;14.40;60.80
2941;DHT22;1480;51.456;6.670;2023-02-13T16:01:00;14.30;61.40
2941;DHT22;1480;51.456;6.670;2023-02-13T16:03:30;14.30;61.70
2941;DHT22;1480;51.456;6.670;2023-02-13T16:05:58;14.20;62.00
2941;DHT22;1480;51.456;6.670;2023-02-13T16:08:28;14.10;62.60
2941;DHT22;1480;51.456;6.670;2023-02-13T16:11:24;14.00;62.90
2941;DHT22;1480;51.456;6.670;2023-02-13T16:14:01;13.90;62.90
2941;DHT22;1480;51.456;6.670;2023-02-13T16:16:33;13.80;63.70
2941;DHT22;1480;51.456;6.670;2023-02-13T16:19:00;13.80;66.10
2941;DHT22;1480;51.456;6.670;2023-02-13T16:21:28;13.70;68.60
2941;DHT22;1480;51.456;6.670;2023-02-13T16:24:00;13.60;71.40
2941;DHT22;1480;51.456;6.670;2023-02-13T16:26:29;13.40;72.00
2941;DHT22;1480;51.456;6.670;2023-02-13T16:28:57;13.40;73.60
2941;DHT22;1480;51.456;6.670;2023-02-13T16:31:24;13.30;76.00
2941;DHT22;1480;51.456;6.670;2023-02-13T16:33:52;13.30;76.80
2941;DHT22;1480;51.456;6.670;2023-02-13T16:36:27;13.20;78.50
2941;DHT22;1480;51.456;6.670;2023-02-13T16:38:54;13.10;79.10
2941;DHT22;1480;51.456;6.670;2023-02-13T16:41:30;13.00;79.60
2941;DHT22;1480;51.456;6.670;2023-02-13T16:43:58;13.00;80.30
2941;DHT22;1480;51.456;6.670;2023-02-13T16:46:35;12.90;81.70
2941;DHT22;1480;51.456;6.670;2023-02-13T16:49:28;12.90;82.30
2941;DHT22;1480;51.456;6.670;2023-02-13T16:52:00;12.70;82.70
2941;DHT22;1480;51.456;6.670;2023-02-13T16:54:35;12.60;84.50
2941;DHT22;1480;51.456;6.670;2023-02-13T16:57:13;12.50;85.00
2941;DHT22;1480;51.456;6.670;2023-02-13T16:59:51;12.40;85.70
2941;DHT22;1480;51.456;6.670;2023-02-13T17:02:21;12.30;86.10
2941;DHT22;1480;51.456;6.670;2023-02-13T17:04:52;12.20;86.50
2941;DHT22;1480;51.456;6.670;2023-02-13T17:07:22;12.20;87.40
2941;DHT22;1480;51.456;6.670;2023-02-13T17:09:57;12.10;87.70